Terminal Aerodrome Forecast
Issued by NWS Corpus Christi, TX

Home | Current Version | Previous Version | Text Only | Print | Product List | Glossary On
Versions: 1 2 3 4 5 6 7 8 9 10 11 12 13 14 15 16
000
FTUS44 KCRP 050528
TAFVCT
TAF
KVCT 050528Z 0506/0606 15006KT P6SM FEW015
     FM050800 16004KT 6SM BR SCT015
      TEMPO 0510/0514 4SM BR BKN015
     FM051500 17012G18KT P6SM SCT035
     FM060100 15008KT P6SM FEW020=

USA.gov is the U.S. government's official web portal to all federal, state and local government web resources and services.